sensor_id;sensor_type;location;lat;lon;timestamp;pressure;altitude;pressure_sealevel;temperature;humidity
26823;BME280;14852;51.910;8.878;2023-04-09T00:01:54;100814.69;;;5.19;57.65
26823;BME280;14852;51.910;8.878;2023-04-09T00:04:20;100814.75;;;5.13;57.93
26823;BME280;14852;51.910;8.878;2023-04-09T00:06:47;100816.53;;;5.07;57.98
26823;BME280;14852;51.910;8.878;2023-04-09T00:09:12;100814.03;;;5.01;58.13
26823;BME280;14852;51.910;8.878;2023-04-09T00:11:38;100809.81;;;4.96;57.92
26823;BME280;14852;51.910;8.878;2023-04-09T00:14:04;100811.59;;;4.91;57.96
26823;BME280;14852;51.910;8.878;2023-04-09T00:16:30;100809.88;;;4.90;58.00
26823;BME280;14852;51.910;8.878;2023-04-09T00:18:55;100808.19;;;4.87;58.02
26823;BME280;14852;51.910;8.878;2023-04-09T00:21:21;100812.50;;;4.85;57.97
26823;BME280;14852;51.910;8.878;2023-04-09T00:23:47;100811.72;;;4.80;57.96
26823;BME280;14852;51.910;8.878;2023-04-09T00:26:13;100804.88;;;4.78;57.97
26823;BME280;14852;51.910;8.878;2023-04-09T00:28:39;100804.88;;;4.78;58.24
26823;BME280;14852;51.910;8.878;2023-04-09T00:31:05;100803.19;;;4.77;58.13
26823;BME280;14852;51.910;8.878;2023-04-09T00:33:31;100802.44;;;4.67;58.25
26823;BME280;14852;51.910;8.878;2023-04-09T00:35:57;100801.69;;;4.57;58.27
26823;BME280;14852;51.910;8.878;2023-04-09T00:38:22;100801.72;;;4.53;58.45
26823;BME280;14852;51.910;8.878;2023-04-09T00:40:49;100797.44;;;4.52;58.28
26823;BME280;14852;51.910;8.878;2023-04-09T00:43:16;100800.94;;;4.48;58.12
26823;BME280;14852;51.910;8.878;2023-04-09T00:45:43;100801.00;;;4.40;58.03
26823;BME280;14852;51.910;8.878;2023-04-09T00:48:11;100797.66;;;4.33;58.49
26823;BME280;14852;51.910;8.878;2023-04-09T00:50:37;100793.41;;;4.29;58.31
26823;BME280;14852;51.910;8.878;2023-04-09T00:53:04;100795.13;;;4.29;58.27
26823;BME280;14852;51.910;8.878;2023-04-09T00:55:30;100784.81;;;4.30;58.33
26823;BME280;14852;51.910;8.878;2023-04-09T00:57:57;100780.50;;;4.34;58.30
26823;BME280;14852;51.910;8.878;2023-04-09T01:00:23;100789.06;;;4.36;58.15
26823;BME280;14852;51.910;8.878;2023-04-09T01:02:49;100788.19;;;4.37;58.19
26823;BME280;14852;51.910;8.878;2023-04-09T01:05:17;100785.63;;;4.37;58.31
26823;BME280;14852;51.910;8.878;2023-04-09T01:08:00;100776.16;;;4.39;58.52
26823;BME280;14852;51.910;8.878;2023-04-09T01:10:41;100783.88;;;4.39;58.65
26823;BME280;14852;51.910;8.878;2023-04-09T01:13:46;100783.88;;;4.39;58.55
26823;BME280;14852;51.910;8.878;2023-04-09T01:16:15;100783.06;;;4.37;58.43
26823;BME280;14852;51.910;8.878;2023-04-09T01:18:57;100780.44;;;4.40;58.42
26823;BME280;14852;51.910;8.878;2023-04-09T01:21:30;100784.72;;;4.40;58.58
26823;BME280;14852;51.910;8.878;2023-04-09T01:27:05;100781.28;;;4.39;58.09
26823;BME280;14852;51.910;8.878;2023-04-09T01:29:44;100781.34;;;4.36;58.03
26823;BME280;14852;51.910;8.878;2023-04-09T01:32:11;100779.75;;;4.24;58.26
26823;BME280;14852;51.910;8.878;2023-04-09T01:34:39;100790.16;;;4.15;58.59
26823;BME280;14852;51.910;8.878;2023-04-09T01:37:06;100773.06;;;4.07;58.79
26823;BME280;14852;51.910;8.878;2023-04-09T01:39:33;100782.56;;;4.02;59.05
26823;BME280;14852;51.910;8.878;2023-04-09T01:41:59;100784.31;;;3.96;58.97
26823;BME280;14852;51.910;8.878;2023-04-09T01:44:26;100790.31;;;3.95;59.09
26823;BME280;14852;51.910;8.878;2023-04-09T01:46:54;100786.03;;;3.94;58.87
26823;BME280;14852;51.910;8.878;2023-04-09T01:49:22;100786.88;;;3.96;58.91
26823;BME280;14852;51.910;8.878;2023-04-09T01:51:49;100790.28;;;3.97;59.20
26823;BME280;14852;51.910;8.878;2023-04-09T01:54:15;100773.16;;;3.96;58.62
26823;BME280;14852;51.910;8.878;2023-04-09T01:56:47;100786.84;;;4.03;58.80
26823;BME280;14852;51.910;8.878;2023-04-09T01:59:14;100783.41;;;4.04;58.64
26823;BME280;14852;51.910;8.878;2023-04-09T02:01:47;100780.78;;;4.05;58.65
26823;BME280;14852;51.910;8.878;2023-04-09T02:04:32;100783.34;;;4.07;58.76
26823;BME280;14852;51.910;8.878;2023-04-09T02:09:39;100786.09;;;3.88;58.76
26823;BME280;14852;51.910;8.878;2023-04-09T02:12:10;100781.00;;;3.81;59.01
26823;BME280;14852;51.910;8.878;2023-04-09T02:14:37;100786.19;;;3.76;58.98
26823;BME280;14852;51.910;8.878;2023-04-09T02:17:04;100786.22;;;3.73;59.07
26823;BME280;14852;51.910;8.878;2023-04-09T02:19:41;100786.28;;;3.67;59.07
26823;BME280;14852;51.910;8.878;2023-04-09T02:22:08;100788.00;;;3.65;59.15
26823;BME280;14852;51.910;8.878;2023-04-09T02:24:34;100800.00;;;3.66;59.08
26823;BME280;14852;51.910;8.878;2023-04-09T02:27:01;100796.50;;;3.72;58.73
26823;BME280;14852;51.910;8.878;2023-04-09T02:29:27;100792.13;;;3.83;58.78
26823;BME280;14852;51.910;8.878;2023-04-09T02:31:53;100793.78;;;3.91;58.41
26823;BME280;14852;51.910;8.878;2023-04-09T02:34:21;100797.97;;;4.03;58.17
26823;BME280;14852;51.910;8.878;2023-04-09T02:36:47;100790.97;;;4.16;58.21
26823;BME280;14852;51.910;8.878;2023-04-09T02:39:13;100788.28;;;4.28;58.12
26823;BME280;14852;51.910;8.878;2023-04-09T02:41:39;100789.81;;;4.44;57.87
26823;BME280;14852;51.910;8.878;2023-04-09T02:44:05;100779.38;;;4.59;57.95
26823;BME280;14852;51.910;8.878;2023-04-09T02:46:31;100787.81;;;4.72;57.94
26823;BME280;14852;51.910;8.878;2023-04-09T02:48:57;100783.38;;;4.83;57.88
26823;BME280;14852;51.910;8.878;2023-04-09T02:51:22;100783.22;;;4.94;58.12
26823;BME280;14852;51.910;8.878;2023-04-09T02:53:48;100780.50;;;5.04;58.02
26823;BME280;14852;51.910;8.878;2023-04-09T02:56:14;100776.09;;;5.13;58.29
26823;BME280;14852;51.910;8.878;2023-04-09T02:58:40;100775.94;;;5.23;58.02
26823;BME280;14852;51.910;8.878;2023-04-09T03:01:06;100776.69;;;5.31;58.31
26823;BME280;14852;51.910;8.878;2023-04-09T03:03:32;100774.00;;;5.39;58.16
26823;BME280;14852;51.910;8.878;2023-04-09T03:05:57;100769.56;;;5.47;58.12
26823;BME280;14852;51.910;8.878;2023-04-09T03:08:23;100762.56;;;5.55;58.48
26823;BME280;14852;51.910;8.878;2023-04-09T03:10:49;100764.19;;;5.62;58.42
26823;BME280;14852;51.910;8.878;2023-04-09T03:13:15;100767.50;;;5.69;58.76
26823;BME280;14852;51.910;8.878;2023-04-09T03:15:41;100759.72;;;5.72;58.93
26823;BME280;14852;51.910;8.878;2023-04-09T03:18:07;100761.38;;;5.76;58.90
26823;BME280;14852;51.910;8.878;2023-04-09T03:20:32;100757.00;;;5.79;59.22
26823;BME280;14852;51.910;8.878;2023-04-09T03:23:01;100756.94;;;5.84;58.99
26823;BME280;14852;51.910;8.878;2023-04-09T03:25:32;100754.31;;;5.89;59.29
26823;BME280;14852;51.910;8.878;2023-04-09T03:28:02;100755.94;;;5.94;59.23
26823;BME280;14852;51.910;8.878;2023-04-09T03:30:36;100748.16;;;5.97;59.45
26823;BME280;14852;51.910;8.878;2023-04-09T03:33:04;100749.78;;;6.01;59.44
26823;BME280;14852;51.910;8.878;2023-04-09T03:35:34;100747.16;;;6.04;59.50
26823;BME280;14852;51.910;8.878;2023-04-09T03:38:01;100744.56;;;6.06;59.45
26823;BME280;14852;51.910;8.878;2023-04-09T03:40:27;100746.19;;;6.11;59.56
26823;BME280;14852;51.910;8.878;2023-04-09T03:42:53;100742.66;;;6.15;59.55
26823;BME280;14852;51.910;8.878;2023-04-09T03:45:19;100734.84;;;6.18;59.36
26823;BME280;14852;51.910;8.878;2023-04-09T03:47:47;100735.72;;;6.17;59.65
26823;BME280;14852;51.910;8.878;2023-04-09T03:50:13;100734.91;;;6.15;59.51
26823;BME280;14852;51.910;8.878;2023-04-09T03:52:51;100736.69;;;6.12;59.73
26823;BME280;14852;51.910;8.878;2023-04-09T03:55:17;100738.44;;;6.11;59.85
26823;BME280;14852;51.910;8.878;2023-04-09T03:57:44;100741.06;;;6.10;59.96
26823;BME280;14852;51.910;8.878;2023-04-09T04:00:14;100734.22;;;6.07;59.93
26823;BME280;14852;51.910;8.878;2023-04-09T04:02:50;100730.81;;;6.05;59.81
26823;BME280;14852;51.910;8.878;2023-04-09T04:05:23;100728.22;;;6.05;59.95
26823;BME280;14852;51.910;8.878;2023-04-09T04:07:51;100734.22;;;6.06;60.08
26823;BME280;14852;51.910;8.878;2023-04-09T04:10:24;100738.53;;;6.05;60.45
26823;BME280;14852;51.910;8.878;2023-04-09T04:12:50;100734.25;;;6.04;60.30
26823;BME280;14852;51.910;8.878;2023-04-09T04:15:24;100740.28;;;6.03;60.82
26823;BME280;14852;51.910;8.878;2023-04-09T04:17:54;100736.94;;;6.00;61.15
26823;BME280;14852;51.910;8.878;2023-04-09T04:20:35;100752.38;;;6.01;60.92
26823;BME280;14852;51.910;8.878;2023-04-09T04:23:06;100750.59;;;6.05;60.75
26823;BME280;14852;51.910;8.878;2023-04-09T04:25:35;100745.38;;;6.08;60.70
26823;BME280;14852;51.910;8.878;2023-04-09T04:28:01;100759.03;;;6.13;60.83
26823;BME280;14852;51.910;8.878;2023-04-09T04:30:36;100742.59;;;6.18;60.58
26823;BME280;14852;51.910;8.878;2023-04-09T04:33:05;100747.63;;;6.25;60.86
26823;BME280;14852;51.910;8.878;2023-04-09T04:35:38;100751.09;;;6.24;60.56
26823;BME280;14852;51.910;8.878;2023-04-09T04:38:07;100747.72;;;6.22;60.89
26823;BME280;14852;51.910;8.878;2023-04-09T04:40:36;100754.53;;;6.24;60.68
26823;BME280;14852;51.910;8.878;2023-04-09T04:43:02;100758.81;;;6.24;60.68
26823;BME280;14852;51.910;8.878;2023-04-09T04:45:28;100746.84;;;6.23;61.00
26823;BME280;14852;51.910;8.878;2023-04-09T04:48:00;100757.09;;;6.24;60.88
26823;BME280;14852;51.910;8.878;2023-04-09T04:50:26;100757.97;;;6.23;60.89
26823;BME280;14852;51.910;8.878;2023-04-09T04:53:05;100756.34;;;6.21;60.89
26823;BME280;14852;51.910;8.878;2023-04-09T04:55:37;100758.91;;;6.21;60.93
26823;BME280;14852;51.910;8.878;2023-04-09T04:58:06;100756.34;;;6.19;61.00
26823;BME280;14852;51.910;8.878;2023-04-09T05:00:40;100758.09;;;6.17;61.29
26823;BME280;14852;51.910;8.878;2023-04-09T05:03:07;100761.59;;;6.14;61.29
26823;BME280;14852;51.910;8.878;2023-04-09T05:05:43;100755.59;;;6.12;61.02
26823;BME280;14852;51.910;8.878;2023-04-09T05:08:11;100765.91;;;6.14;61.47
26823;BME280;14852;51.910;8.878;2023-04-09T05:10:40;100756.34;;;6.21;61.08
26823;BME280;14852;51.910;8.878;2023-04-09T05:13:07;100763.13;;;6.25;61.23
26823;BME280;14852;51.910;8.878;2023-04-09T05:15:39;100759.63;;;6.27;60.88
26823;BME280;14852;51.910;8.878;2023-04-09T05:18:06;100757.88;;;6.29;60.93
26823;BME280;14852;51.910;8.878;2023-04-09T05:20:33;100759.59;;;6.30;61.04
26823;BME280;14852;51.910;8.878;2023-04-09T05:23:06;100759.53;;;6.33;60.89
26823;BME280;14852;51.910;8.878;2023-04-09T05:25:38;100763.88;;;6.31;60.72
26823;BME280;14852;51.910;8.878;2023-04-09T05:28:07;100763.00;;;6.31;60.82
26823;BME280;14852;51.910;8.878;2023-04-09T05:30:34;100766.44;;;6.31;60.77
26823;BME280;14852;51.910;8.878;2023-04-09T05:33:02;100763.00;;;6.31;60.54
26823;BME280;14852;51.910;8.878;2023-04-09T05:35:29;100774.19;;;6.31;60.95
26823;BME280;14852;51.910;8.878;2023-04-09T05:37:55;100765.59;;;6.31;60.88
26823;BME280;14852;51.910;8.878;2023-04-09T05:40:21;100764.78;;;6.29;60.68
26823;BME280;14852;51.910;8.878;2023-04-09T05:42:48;100776.84;;;6.27;60.67
26823;BME280;14852;51.910;8.878;2023-04-09T05:45:22;100763.91;;;6.28;60.94
26823;BME280;14852;51.910;8.878;2023-04-09T05:47:51;100763.94;;;6.27;60.96
26823;BME280;14852;51.910;8.878;2023-04-09T05:50:19;100769.09;;;6.28;60.94
26823;BME280;14852;51.910;8.878;2023-04-09T05:52:47;100771.63;;;6.31;60.78
26823;BME280;14852;51.910;8.878;2023-04-09T05:55:14;100762.97;;;6.34;60.82
26823;BME280;14852;51.910;8.878;2023-04-09T05:57:52;100762.84;;;6.38;60.81
26823;BME280;14852;51.910;8.878;2023-04-09T06:00:17;100763.75;;;6.37;60.68
26823;BME280;14852;51.910;8.878;2023-04-09T06:02:44;100764.59;;;6.38;60.75
26823;BME280;14852;51.910;8.878;2023-04-09T06:05:10;100757.66;;;6.41;60.97
26823;BME280;14852;51.910;8.878;2023-04-09T06:07:36;100763.53;;;6.48;60.68
26823;BME280;14852;51.910;8.878;2023-04-09T06:10:02;100766.03;;;6.52;60.49
26823;BME280;14852;51.910;8.878;2023-04-09T06:12:28;100769.66;;;6.44;60.88
26823;BME280;14852;51.910;8.878;2023-04-09T06:14:54;100768.00;;;6.40;60.85
26823;BME280;14852;51.910;8.878;2023-04-09T06:17:20;100767.19;;;6.36;61.24
26823;BME280;14852;51.910;8.878;2023-04-09T06:19:45;100771.56;;;6.34;61.01
26823;BME280;14852;51.910;8.878;2023-04-09T06:22:11;100768.91;;;6.37;61.21
26823;BME280;14852;51.910;8.878;2023-04-09T06:24:37;100768.94;;;6.36;61.20
26823;BME280;14852;51.910;8.878;2023-04-09T06:27:03;100766.31;;;6.37;61.49
26823;BME280;14852;51.910;8.878;2023-04-09T06:29:28;100762.66;;;6.49;61.30
26823;BME280;14852;51.910;8.878;2023-04-09T06:31:54;100770.94;;;6.66;60.95
26823;BME280;14852;51.910;8.878;2023-04-09T06:34:20;100769.75;;;6.81;60.68
26823;BME280;14852;51.910;8.878;2023-04-09T06:36:46;100777.09;;;7.01;60.62
26823;BME280;14852;51.910;8.878;2023-04-09T06:39:11;100780.25;;;7.13;60.20
26823;BME280;14852;51.910;8.878;2023-04-09T06:41:37;100776.63;;;7.22;59.90
26823;BME280;14852;51.910;8.878;2023-04-09T06:44:11;100769.69;;;7.24;60.22
26823;BME280;14852;51.910;8.878;2023-04-09T06:46:37;100776.63;;;7.22;60.16
26823;BME280;14852;51.910;8.878;2023-04-09T06:49:03;100784.19;;;7.30;60.37
26823;BME280;14852;51.910;8.878;2023-04-09T06:51:29;100780.31;;;7.49;60.20
26823;BME280;14852;51.910;8.878;2023-04-09T06:53:55;100778.03;;;7.72;59.75
26823;BME280;14852;51.910;8.878;2023-04-09T06:56:20;100776.78;;;8.19;59.40
26823;BME280;14852;51.910;8.878;2023-04-09T06:58:46;100769.88;;;8.83;57.85
26823;BME280;14852;51.910;8.878;2023-04-09T07:01:12;100774.28;;;9.65;56.19
26823;BME280;14852;51.910;8.878;2023-04-09T07:03:38;100771.09;;;10.08;55.37
26823;BME280;14852;51.910;8.878;2023-04-09T07:06:04;100766.78;;;10.81;54.27
26823;BME280;14852;51.910;8.878;2023-04-09T07:08:30;100771.41;;;11.84;52.35
26823;BME280;14852;51.910;8.878;2023-04-09T07:10:55;100761.97;;;12.61;50.96
26823;BME280;14852;51.910;8.878;2023-04-09T07:13:21;100765.06;;;13.80;48.84
26823;BME280;14852;51.910;8.878;2023-04-09T07:15:47;100759.47;;;15.19;46.80
26823;BME280;14852;51.910;8.878;2023-04-09T07:18:13;100746.38;;;16.53;44.17
26823;BME280;14852;51.910;8.878;2023-04-09T07:20:38;100748.38;;;17.73;42.50
26823;BME280;14852;51.910;8.878;2023-04-09T07:23:04;100736.66;;;18.29;41.46
26823;BME280;14852;51.910;8.878;2023-04-09T07:25:30;100737.81;;;19.12;40.93
26823;BME280;14852;51.910;8.878;2023-04-09T07:27:57;100728.84;;;20.09;39.72
26823;BME280;14852;51.910;8.878;2023-04-09T07:30:23;100732.97;;;20.80;38.72
26823;BME280;14852;51.910;8.878;2023-04-09T07:32:48;100734.16;;;20.98;38.75
26823;BME280;14852;51.910;8.878;2023-04-09T07:35:14;100732.16;;;21.45;38.71
26823;BME280;14852;51.910;8.878;2023-04-09T07:37:40;100728.28;;;21.69;38.24
26823;BME280;14852;51.910;8.878;2023-04-09T07:40:06;100740.56;;;21.71;38.30
26823;BME280;14852;51.910;8.878;2023-04-09T07:42:33;100728.47;;;22.40;37.42
26823;BME280;14852;51.910;8.878;2023-04-09T07:44:58;100736.78;;;22.87;37.30
26823;BME280;14852;51.910;8.878;2023-04-09T07:47:25;100728.50;;;23.39;36.07
26823;BME280;14852;51.910;8.878;2023-04-09T07:49:51;100721.91;;;23.43;36.05
26823;BME280;14852;51.910;8.878;2023-04-09T07:52:17;100730.69;;;23.15;36.58
26823;BME280;14852;51.910;8.878;2023-04-09T07:54:44;100733.09;;;23.28;35.87
26823;BME280;14852;51.910;8.878;2023-04-09T07:57:10;100725.53;;;23.04;36.01
26823;BME280;14852;51.910;8.878;2023-04-09T07:59:35;100733.94;;;23.28;35.42
26823;BME280;14852;51.910;8.878;2023-04-09T08:02:01;100741.09;;;23.57;35.97
26823;BME280;14852;51.910;8.878;2023-04-09T08:04:28;100728.25;;;23.62;35.26
26823;BME280;14852;51.910;8.878;2023-04-09T08:06:54;100733.66;;;23.41;35.61
26823;BME280;14852;51.910;8.878;2023-04-09T08:09:20;100729.88;;;23.43;35.06
26823;BME280;14852;51.910;8.878;2023-04-09T08:11:47;100732.78;;;23.21;35.65
26823;BME280;14852;51.910;8.878;2023-04-09T08:14:15;100728.19;;;23.42;35.13
26823;BME280;14852;51.910;8.878;2023-04-09T08:16:44;100724.31;;;23.46;35.49
26823;BME280;14852;51.910;8.878;2023-04-09T08:19:11;100735.19;;;23.24;35.62
26823;BME280;14852;51.910;8.878;2023-04-09T08:21:37;100727.06;;;23.16;35.50
26823;BME280;14852;51.910;8.878;2023-04-09T08:24:04;100733.47;;;23.04;35.37
26823;BME280;14852;51.910;8.878;2023-04-09T08:26:31;100729.84;;;22.95;35.90
26823;BME280;14852;51.910;8.878;2023-04-09T08:28:57;100729.03;;;23.14;35.15
26823;BME280;14852;51.910;8.878;2023-04-09T08:31:23;100729.78;;;23.55;34.84
26823;BME280;14852;51.910;8.878;2023-04-09T08:33:49;100725.28;;;23.84;34.01
26823;BME280;14852;51.910;8.878;2023-04-09T08:36:15;100727.91;;;24.23;33.21
26823;BME280;14852;51.910;8.878;2023-04-09T08:38:41;100730.25;;;24.26;33.06
26823;BME280;14852;51.910;8.878;2023-04-09T08:41:07;100727.91;;;24.23;33.38
26823;BME280;14852;51.910;8.878;2023-04-09T08:43:41;100732.91;;;24.16;33.74
26823;BME280;14852;51.910;8.878;2023-04-09T08:46:09;100734.03;;;24.33;33.64
26823;BME280;14852;51.910;8.878;2023-04-09T08:48:36;100726.19;;;24.12;33.28
26823;BME280;14852;51.910;8.878;2023-04-09T08:51:01;100733.22;;;23.94;33.97
26823;BME280;14852;51.910;8.878;2023-04-09T08:53:27;100725.97;;;23.96;34.17
26823;BME280;14852;51.910;8.878;2023-04-09T08:55:53;100732.28;;;23.75;33.58
26823;BME280;14852;51.910;8.878;2023-04-09T08:58:19;100731.41;;;23.27;33.91
26823;BME280;14852;51.910;8.878;2023-04-09T09:00:45;100729.66;;;22.87;34.96
26823;BME280;14852;51.910;8.878;2023-04-09T09:03:11;100733.59;;;22.62;35.30
26823;BME280;14852;51.910;8.878;2023-04-09T09:05:43;100726.09;;;21.54;36.38
26823;BME280;14852;51.910;8.878;2023-04-09T09:08:12;100732.53;;;20.64;37.80
26823;BME280;14852;51.910;8.878;2023-04-09T09:10:41;100732.63;;;19.82;38.65
26823;BME280;14852;51.910;8.878;2023-04-09T09:13:18;100739.59;;;19.12;40.58
26823;BME280;14852;51.910;8.878;2023-04-09T09:15:44;100740.16;;;18.68;40.55
26823;BME280;14852;51.910;8.878;2023-04-09T09:18:12;100736.03;;;18.26;41.30
26823;BME280;14852;51.910;8.878;2023-04-09T09:20:37;100735.50;;;17.95;41.43
26823;BME280;14852;51.910;8.878;2023-04-09T09:23:04;100737.31;;;17.68;42.25
26823;BME280;14852;51.910;8.878;2023-04-09T09:25:39;100737.41;;;17.66;42.86
26823;BME280;14852;51.910;8.878;2023-04-09T09:28:12;100747.31;;;17.63;43.03
26823;BME280;14852;51.910;8.878;2023-04-09T09:30:39;100732.94;;;17.54;41.98
26823;BME280;14852;51.910;8.878;2023-04-09T09:33:09;100734.72;;;17.41;42.73
26823;BME280;14852;51.910;8.878;2023-04-09T09:35:50;100732.56;;;17.33;42.62
26823;BME280;14852;51.910;8.878;2023-04-09T09:38:17;100732.66;;;17.32;42.59
26823;BME280;14852;51.910;8.878;2023-04-09T09:40:43;100736.63;;;17.25;42.84
26823;BME280;14852;51.910;8.878;2023-04-09T09:43:09;100734.34;;;17.06;42.42
26823;BME280;14852;51.910;8.878;2023-04-09T09:45:36;100733.78;;;17.01;42.55
26823;BME280;14852;51.910;8.878;2023-04-09T09:48:04;100730.81;;;17.20;42.46
26823;BME280;14852;51.910;8.878;2023-04-09T09:50:30;100728.38;;;17.44;42.05
26823;BME280;14852;51.910;8.878;2023-04-09T09:53:03;100724.97;;;17.56;42.63
26823;BME280;14852;51.910;8.878;2023-04-09T09:55:32;100723.56;;;17.77;42.23
26823;BME280;14852;51.910;8.878;2023-04-09T09:58:07;100715.81;;;17.88;42.01
26823;BME280;14852;51.910;8.878;2023-04-09T10:00:37;100717.50;;;18.02;41.99
26823;BME280;14852;51.910;8.878;2023-04-09T10:03:21;100714.56;;;18.06;41.68
26823;BME280;14852;51.910;8.878;2023-04-09T10:05:49;100718.88;;;18.07;41.30
26823;BME280;14852;51.910;8.878;2023-04-09T10:08:15;100710.88;;;17.96;40.45
26823;BME280;14852;51.910;8.878;2023-04-09T10:10:42;100710.22;;;17.80;41.07
26823;BME280;14852;51.910;8.878;2023-04-09T10:13:20;100714.44;;;17.83;41.10
26823;BME280;14852;51.910;8.878;2023-04-09T10:15:48;100704.47;;;17.88;40.25
26823;BME280;14852;51.910;8.878;2023-04-09T10:18:15;100711.59;;;17.86;39.90
26823;BME280;14852;51.910;8.878;2023-04-09T10:21:04;100706.88;;;17.91;40.37
26823;BME280;14852;51.910;8.878;2023-04-09T10:23:41;100703.91;;;17.83;39.61
26823;BME280;14852;51.910;8.878;2023-04-09T10:26:07;100700.97;;;18.00;40.44
26823;BME280;14852;51.910;8.878;2023-04-09T10:28:33;100702.38;;;18.18;38.76
26823;BME280;14852;51.910;8.878;2023-04-09T10:30:59;100696.56;;;18.13;38.94
26823;BME280;14852;51.910;8.878;2023-04-09T10:33:26;100693.94;;;18.26;38.64
26823;BME280;14852;51.910;8.878;2023-04-09T10:35:54;100695.63;;;18.14;37.78
26823;BME280;14852;51.910;8.878;2023-04-09T10:38:39;100693.00;;;18.14;38.12
26823;BME280;14852;51.910;8.878;2023-04-09T10:41:20;100692.47;;;18.09;38.99
26823;BME280;14852;51.910;8.878;2023-04-09T10:43:47;100708.88;;;18.00;38.71
26823;BME280;14852;51.910;8.878;2023-04-09T10:46:31;100702.88;;;17.85;39.38
26823;BME280;14852;51.910;8.878;2023-04-09T10:51:38;100709.81;;;17.47;39.53
26823;BME280;14852;51.910;8.878;2023-04-09T10:54:05;100712.06;;;17.26;39.67
26823;BME280;14852;51.910;8.878;2023-04-09T10:56:32;100709.03;;;17.05;39.68
26823;BME280;14852;51.910;8.878;2023-04-09T10:58:58;100706.50;;;17.04;40.19
26823;BME280;14852;51.910;8.878;2023-04-09T11:01:23;100706.09;;;17.10;39.96
26823;BME280;14852;51.910;8.878;2023-04-09T11:04:16;100700.09;;;17.34;39.93
26823;BME280;14852;51.910;8.878;2023-04-09T11:06:44;100692.53;;;17.30;39.47
26823;BME280;14852;51.910;8.878;2023-04-09T11:09:10;100686.72;;;17.25;39.27
26823;BME280;14852;51.910;8.878;2023-04-09T11:11:36;100693.53;;;17.15;38.83
26823;BME280;14852;51.910;8.878;2023-04-09T11:14:02;100690.34;;;17.10;39.69
26823;BME280;14852;51.910;8.878;2023-04-09T11:16:30;100693.19;;;17.07;39.24
26823;BME280;14852;51.910;8.878;2023-04-09T11:18:57;100688.91;;;16.91;39.26
26823;BME280;14852;51.910;8.878;2023-04-09T11:21:26;100686.56;;;16.87;39.63
26823;BME280;14852;51.910;8.878;2023-04-09T11:23:53;100688.81;;;16.93;39.45
26823;BME280;14852;51.910;8.878;2023-04-09T11:26:31;100688.13;;;17.04;39.83
26823;BME280;14852;51.910;8.878;2023-04-09T11:29:09;100684.59;;;16.90;39.81
26823;BME280;14852;51.910;8.878;2023-04-09T11:31:35;100689.44;;;16.70;39.66
26823;BME280;14852;51.910;8.878;2023-04-09T11:34:02;100690.53;;;16.51;39.95
26823;BME280;14852;51.910;8.878;2023-04-09T11:36:28;100687.81;;;16.53;40.01
26823;BME280;14852;51.910;8.878;2023-04-09T11:38:56;100687.28;;;16.48;39.41
26823;BME280;14852;51.910;8.878;2023-04-09T11:41:34;100681.19;;;16.47;40.28
26823;BME280;14852;51.910;8.878;2023-04-09T11:44:04;100686.22;;;16.64;39.81
26823;BME280;14852;51.910;8.878;2023-04-09T11:46:32;100683.50;;;16.80;39.93
26823;BME280;14852;51.910;8.878;2023-04-09T11:48:58;100684.94;;;16.72;39.99
26823;BME280;14852;51.910;8.878;2023-04-09T11:51:26;100689.44;;;16.70;40.21
26823;BME280;14852;51.910;8.878;2023-04-09T11:53:53;100685.00;;;16.56;39.34
26823;BME280;14852;51.910;8.878;2023-04-09T11:56:19;100684.44;;;16.51;39.38
26823;BME280;14852;51.910;8.878;2023-04-09T11:58:48;100685.09;;;16.54;39.38
26823;BME280;14852;51.910;8.878;2023-04-09T12:01:14;100676.56;;;16.51;39.56
26823;BME280;14852;51.910;8.878;2023-04-09T12:03:41;100682.88;;;16.48;39.75
26823;BME280;14852;51.910;8.878;2023-04-09T12:06:07;100680.69;;;16.41;39.79
26823;BME280;14852;51.910;8.878;2023-04-09T12:08:34;100679.94;;;16.39;39.50
26823;BME280;14852;51.910;8.878;2023-04-09T12:11:13;100685.75;;;16.29;39.66
26823;BME280;14852;51.910;8.878;2023-04-09T12:13:40;100687.19;;;16.35;39.51
26823;BME280;14852;51.910;8.878;2023-04-09T12:16:08;100686.50;;;16.32;39.24
26823;BME280;14852;51.910;8.878;2023-04-09T12:18:36;100675.75;;;16.36;38.71
26823;BME280;14852;51.910;8.878;2023-04-09T12:21:03;100677.31;;;16.53;38.81
26823;BME280;14852;51.910;8.878;2023-04-09T12:23:29;100685.38;;;16.64;38.58
26823;BME280;14852;51.910;8.878;2023-04-09T12:25:58;100684.53;;;16.63;38.43
26823;BME280;14852;51.910;8.878;2023-04-09T12:28:26;100684.53;;;16.63;38.71
26823;BME280;14852;51.910;8.878;2023-04-09T12:30:52;100683.69;;;16.63;38.28
26823;BME280;14852;51.910;8.878;2023-04-09T12:33:19;100678.28;;;16.66;38.83
26823;BME280;14852;51.910;8.878;2023-04-09T12:35:45;100668.59;;;16.81;37.94
26823;BME280;14852;51.910;8.878;2023-04-09T12:38:11;100661.47;;;16.83;38.41
26823;BME280;14852;51.910;8.878;2023-04-09T12:40:37;100665.31;;;16.77;38.38
26823;BME280;14852;51.910;8.878;2023-04-09T12:43:03;100666.06;;;16.79;37.75
26823;BME280;14852;51.910;8.878;2023-04-09T12:45:30;100671.81;;;16.72;37.95
26823;BME280;14852;51.910;8.878;2023-04-09T12:47:56;100660.28;;;16.60;37.60
26823;BME280;14852;51.910;8.878;2023-04-09T12:50:22;100668.16;;;16.60;37.51
26823;BME280;14852;51.910;8.878;2023-04-09T12:52:49;100659.72;;;16.69;37.91
26823;BME280;14852;51.910;8.878;2023-04-09T12:55:15;100660.16;;;16.76;38.13
26823;BME280;14852;51.910;8.878;2023-04-09T12:57:45;100661.31;;;16.72;37.83
26823;BME280;14852;51.910;8.878;2023-04-09T13:00:14;100656.34;;;16.67;38.11
26823;BME280;14852;51.910;8.878;2023-04-09T13:02:40;100658.94;;;16.81;38.23
26823;BME280;14852;51.910;8.878;2023-04-09T13:05:06;100650.75;;;16.86;37.90
26823;BME280;14852;51.910;8.878;2023-04-09T13:07:32;100651.22;;;16.92;37.73
26823;BME280;14852;51.910;8.878;2023-04-09T13:09:58;100648.75;;;17.04;37.61